createdAt,value
2023-03-26T00:02:02.032Z,100947.69
2023-03-26T00:07:05.361Z,100934.81
2023-03-26T00:12:07.947Z,100924.94
2023-03-26T00:17:10.403Z,100925.00
2023-03-26T00:22:13.851Z,100916.38
2023-03-26T00:27:16.372Z,100910.41
2023-03-26T00:32:18.953Z,100920.63
2023-03-26T00:37:28.482Z,100910.66
2023-03-26T00:42:32.190Z,100907.66
2023-03-26T00:47:36.333Z,100906.19
2023-03-26T00:52:39.383Z,100904.22
2023-03-26T00:57:41.963Z,100905.69
2023-03-26T01:02:45.393Z,100904.22
2023-03-26T01:07:48.289Z,100895.22
2023-03-26T01:12:50.754Z,100888.25
2023-03-26T01:17:58.076Z,100909.13
2023-03-26T01:23:05.571Z,100909.13
2023-03-26T01:28:12.761Z,100900.97
2023-03-26T01:33:34.371Z,100899.91
2023-03-26T01:38:50.196Z,100901.34
2023-03-26T01:44:06.887Z,100893.63
2023-03-26T01:49:13.746Z,100898.97
2023-03-26T01:54:23.285Z,100894.78
2023-03-26T01:59:54.747Z,100899.06
2023-03-26T02:05:26.385Z,100905.31
2023-03-26T02:10:37.107Z,100903.06
2023-03-26T02:15:41.316Z,100906.97
2023-03-26T02:20:44.128Z,100904.34
2023-03-26T02:25:47.867Z,100905.88
2023-03-26T02:30:50.617Z,100903.91
2023-03-26T02:35:53.906Z,100894.44
2023-03-26T02:40:56.894Z,100893.47
2023-03-26T02:46:10.505Z,100896.53
2023-03-26T02:51:48.169Z,100898.88
2023-03-26T02:57:01.615Z,100899.22
2023-03-26T03:02:24.549Z,100897.72
2023-03-26T03:07:32.771Z,100897.69
2023-03-26T03:12:37.121Z,100898.69
2023-03-26T03:17:40.790Z,100883.94
2023-03-26T03:22:43.429Z,100874.22
2023-03-26T03:27:46.129Z,100863.94
2023-03-26T03:32:49.774Z,100860.59
2023-03-26T03:38:00.299Z,100857.63
2023-03-26T03:43:07.140Z,100844.94
2023-03-26T03:48:19.307Z,100844.16
2023-03-26T03:53:26.378Z,100864.69
2023-03-26T03:58:31.521Z,100855.31
2023-03-26T04:03:46.959Z,100844.31
2023-03-26T04:08:53.024Z,100855.34
2023-03-26T04:13:56.583Z,100846.63
2023-03-26T04:19:17.894Z,100848.47
2023-03-26T04:24:22.683Z,100857.72
2023-03-26T04:29:50.049Z,100849.38
2023-03-26T04:35:01.045Z,100848.06
2023-03-26T04:40:10.500Z,100845.22
2023-03-26T04:45:35.982Z,100839.69
2023-03-26T04:50:38.644Z,100843.84
2023-03-26T04:56:05.739Z,100841.38
2023-03-26T05:01:28.626Z,100847.13
2023-03-26T05:06:34.602Z,100834.88
2023-03-26T05:11:43.901Z,100837.53
2023-03-26T05:16:49.280Z,100835.19
2023-03-26T05:21:52.305Z,100832.38
2023-03-26T05:26:56.203Z,100836.72
2023-03-26T05:32:00.145Z,100843.91
2023-03-26T05:37:04.926Z,100829.69
2023-03-26T05:42:21.754Z,100830.81
2023-03-26T05:47:37.813Z,100829.81
2023-03-26T05:52:40.891Z,100823.19
2023-03-26T05:58:01.705Z,100832.84
2023-03-26T06:03:24.832Z,100822.84
2023-03-26T06:09:02.041Z,100815.50
2023-03-26T06:14:07.198Z,100809.03
2023-03-26T06:19:12.100Z,100810.66
2023-03-26T06:24:43.677Z,100810.91
2023-03-26T06:30:13.285Z,100804.06
2023-03-26T06:35:38.905Z,100783.00
2023-03-26T06:40:41.526Z,100794.25
2023-03-26T06:45:57.924Z,100782.19
2023-03-26T06:51:18.740Z,100775.09
2023-03-26T06:56:53.990Z,100772.34
2023-03-26T07:01:56.552Z,100771.34
2023-03-26T07:07:18.442Z,100745.81
2023-03-26T07:12:39.562Z,100745.53
2023-03-26T07:18:11.104Z,100735.63
2023-03-26T07:23:20.247Z,100728.81
2023-03-26T07:29:07.723Z,100717.31
2023-03-26T07:35:16.313Z,100696.78
2023-03-26T07:41:11.388Z,100686.09
2023-03-26T07:46:43.379Z,100676.91
2023-03-26T07:51:56.185Z,100660.09
2023-03-26T07:57:24.345Z,100665.09
2023-03-26T08:02:49.140Z,100650.63
2023-03-26T08:08:59.452Z,100655.03
2023-03-26T08:14:25.968Z,100637.03
2023-03-26T08:19:50.869Z,100632.59
2023-03-26T08:25:05.662Z,100635.44
2023-03-26T08:30:25.597Z,100625.84
2023-03-26T08:35:28.690Z,100610.44
2023-03-26T08:40:49.377Z,100610.94
2023-03-26T08:46:16.546Z,100600.97
2023-03-26T08:51:44.026Z,100608.34
2023-03-26T08:56:59.782Z,100588.50
2023-03-26T09:02:38.654Z,100591.56
2023-03-26T09:08:02.738Z,100595.84
2023-03-26T09:13:28.044Z,100585.41
2023-03-26T09:18:51.954Z,100570.91
2023-03-26T09:24:30.137Z,100579.41
2023-03-26T09:29:57.517Z,100566.06
2023-03-26T09:35:30.470Z,100556.81
2023-03-26T09:41:05.075Z,100541.78
2023-03-26T09:46:48.874Z,100543.97
2023-03-26T09:51:57.728Z,100535.44
2023-03-26T09:57:09.016Z,100527.53
2023-03-26T10:02:49.869Z,100518.22
2023-03-26T10:08:01.816Z,100514.72
2023-03-26T10:13:31.523Z,100504.81
2023-03-26T10:18:42.874Z,100493.03
2023-03-26T10:23:51.529Z,100493.78
2023-03-26T10:29:09.745Z,100499.09
2023-03-26T10:34:57.048Z,100479.84
2023-03-26T10:40:33.233Z,100479.38
2023-03-26T10:45:38.591Z,100484.72
2023-03-26T10:50:41.210Z,100476.56
2023-03-26T10:55:47.112Z,100472.94
2023-03-26T11:01:02.263Z,100463.53
2023-03-26T11:06:47.364Z,100459.88
2023-03-26T11:11:59.446Z,100456.56
2023-03-26T11:17:39.510Z,100448.91
2023-03-26T11:23:25.136Z,100441.03
2023-03-26T11:29:03.660Z,100431.31
2023-03-26T11:34:21.606Z,100427.50
2023-03-26T11:39:33.929Z,100426.16
2023-03-26T11:44:43.311Z,100402.38
2023-03-26T11:49:48.372Z,100401.31
2023-03-26T11:54:51.458Z,100404.03
2023-03-26T12:00:17.112Z,100391.47
2023-03-26T12:05:25.149Z,100377.75
2023-03-26T12:10:38.466Z,100374.66
2023-03-26T12:15:44.656Z,100364.72
2023-03-26T12:20:48.385Z,100368.78
2023-03-26T12:26:04.457Z,100361.88
2023-03-26T12:31:07.840Z,100353.88
2023-03-26T12:36:36.871Z,100338.88
2023-03-26T12:44:44.554Z,100334.19
2023-03-26T12:47:57.561Z,100339.06
2023-03-26T12:52:55.933Z,100331.47
2023-03-26T12:58:18.848Z,100321.06
2023-03-26T13:03:45.468Z,100315.81
2023-03-26T13:08:57.949Z,100312.91
2023-03-26T13:14:39.533Z,100310.38
2023-03-26T13:20:22.675Z,100303.22
2023-03-26T13:25:43.464Z,100289.50
2023-03-26T13:31:24.137Z,100281.22
2023-03-26T13:36:46.904Z,100280.41
2023-03-26T13:41:52.938Z,100272.75
2023-03-26T13:47:04.143Z,100260.47
2023-03-26T13:52:12.470Z,100255.09
2023-03-26T13:57:25.213Z,100249.56
2023-03-26T14:02:40.891Z,100248.41
2023-03-26T14:08:01.837Z,100245.81
2023-03-26T14:13:15.965Z,100234.53
2023-03-26T14:18:46.158Z,100229.28
2023-03-26T14:24:03.861Z,100218.78
2023-03-26T14:29:29.083Z,100219.22
2023-03-26T14:34:58.825Z,100212.53
2023-03-26T14:40:17.306Z,100196.94
2023-03-26T14:45:44.377Z,100189.00
2023-03-26T14:50:47.008Z,100187.81
2023-03-26T14:56:15.769Z,100184.69
2023-03-26T15:01:47.516Z,100159.09
2023-03-26T15:06:50.219Z,100152.47
2023-03-26T15:12:18.624Z,100140.91
2023-03-26T15:17:57.853Z,100137.28
2023-03-26T15:23:28.755Z,100119.25
2023-03-26T15:28:55.861Z,100112.88
2023-03-26T15:34:01.270Z,100096.47
2023-03-26T15:39:59.910Z,100088.47
2023-03-26T15:45:56.581Z,100082.00
2023-03-26T15:51:47.051Z,100073.97
2023-03-26T15:57:22.902Z,100071.00
2023-03-26T16:02:50.551Z,100073.47
2023-03-26T16:08:07.936Z,100077.34
2023-03-26T16:13:40.956Z,100072.56
2023-03-26T16:18:45.593Z,100077.81
2023-03-26T16:23:49.351Z,100082.72
2023-03-26T16:28:55.251Z,100082.34
2023-03-26T16:34:10.942Z,100077.69
2023-03-26T16:39:49.562Z,100077.00
2023-03-26T16:45:01.028Z,100071.97
2023-03-26T16:50:18.998Z,100075.63
2023-03-26T16:55:31.214Z,100078.47
2023-03-26T17:00:39.692Z,100069.41
2023-03-26T17:05:57.228Z,100074.56
2023-03-26T17:11:23.653Z,100079.41
2023-03-26T17:16:34.600Z,100078.25
2023-03-26T17:21:56.111Z,100078.38
2023-03-26T17:27:36.189Z,100067.00
2023-03-26T17:33:03.767Z,100062.34
2023-03-26T17:38:18.543Z,100078.78
2023-03-26T17:43:57.699Z,100072.69
2023-03-26T17:49:16.880Z,100061.28
2023-03-26T17:54:34.021Z,100052.13
2023-03-26T17:59:39.194Z,100052.81
2023-03-26T18:04:45.956Z,100049.44
2023-03-26T18:10:10.832Z,100046.72
2023-03-26T18:15:58.916Z,100021.50
2023-03-26T18:21:07.427Z,100026.06
2023-03-26T18:26:23.245Z,99999.31
2023-03-26T18:31:27.142Z,100006.59
2023-03-26T18:36:31.729Z,100009.28
2023-03-26T18:41:41.968Z,100008.00
2023-03-26T18:46:46.117Z,100003.53
2023-03-26T18:51:56.798Z,100007.38
2023-03-26T18:57:15.056Z,100013.59
2023-03-26T19:02:20.031Z,100014.75
2023-03-26T19:07:26.743Z,100005.81
2023-03-26T19:12:36.873Z,99998.44
2023-03-26T19:17:46.118Z,99987.00
2023-03-26T19:22:49.656Z,99993.81
2023-03-26T19:27:52.780Z,99991.09
2023-03-26T19:32:56.153Z,99986.78
2023-03-26T19:38:44.855Z,99971.31
2023-03-26T19:43:52.867Z,99956.97
2023-03-26T19:48:59.247Z,99955.75
2023-03-26T19:54:04.906Z,99951.63
2023-03-26T19:59:07.894Z,99942.22
2023-03-26T20:04:12.543Z,99947.84
2023-03-26T20:09:16.532Z,99933.31
2023-03-26T20:14:26.409Z,99933.63
2023-03-26T20:19:29.872Z,99926.63
2023-03-26T20:24:33.828Z,99931.63
2023-03-26T20:29:36.974Z,99911.53
2023-03-26T20:34:40.201Z,99909.44
2023-03-26T20:39:43.097Z,99906.34
2023-03-26T20:44:45.719Z,99904.09
2023-03-26T20:49:48.206Z,99894.69
2023-03-26T20:54:50.759Z,99889.59
2023-03-26T20:59:55.893Z,99876.50
2023-03-26T21:04:58.603Z,99894.75
2023-03-26T21:10:02.234Z,99886.97
2023-03-26T21:15:13.358Z,99868.94
2023-03-26T21:20:20.109Z,99871.06
2023-03-26T21:25:37.004Z,99865.56
2023-03-26T21:30:40.130Z,99863.81
2023-03-26T21:35:42.883Z,99857.28
2023-03-26T21:40:52.923Z,99847.00
2023-03-26T21:46:01.386Z,99829.50
2023-03-26T21:51:05.688Z,99838.34
2023-03-26T21:56:50.715Z,99835.22
2023-03-26T22:02:00.700Z,99838.53
2023-03-26T22:07:30.897Z,99851.97
2023-03-26T22:12:33.458Z,99844.72
2023-03-26T22:17:36.130Z,99822.38
2023-03-26T22:22:49.240Z,99820.91
2023-03-26T22:27:52.933Z,99811.13
2023-03-26T22:32:55.914Z,99824.00
2023-03-26T22:38:01.474Z,99831.84
2023-03-26T22:43:04.842Z,99839.72
2023-03-26T22:48:07.581Z,99840.94
2023-03-26T22:53:10.210Z,99848.38
2023-03-26T22:58:14.019Z,99862.25
2023-03-26T23:03:16.560Z,99852.38
2023-03-26T23:08:19.054Z,99838.56
2023-03-26T23:13:22.360Z,99846.03
2023-03-26T23:18:25.129Z,99861.75
2023-03-26T23:23:30.177Z,99862.78
2023-03-26T23:28:34.067Z,99856.81
2023-03-26T23:33:38.755Z,99849.00
2023-03-26T23:38:43.922Z,99863.44
2023-03-26T23:43:54.153Z,99856.03
2023-03-26T23:49:00.220Z,99871.28
2023-03-26T23:54:03.069Z,99870.91
2023-03-26T23:59:06.352Z,99863.09
